createdAt,value
2019-03-16T00:01:30.939Z,4.89
2019-03-16T00:04:05.009Z,4.87
2019-03-16T00:06:36.830Z,4.86
2019-03-16T00:09:10.248Z,4.85
2019-03-16T00:11:42.079Z,4.89
2019-03-16T00:14:14.254Z,4.83
2019-03-16T00:16:46.025Z,4.91
2019-03-16T00:19:17.957Z,4.97
2019-03-16T00:21:49.819Z,4.94
2019-03-16T00:24:21.621Z,4.95
2019-03-16T00:26:53.350Z,4.94
2019-03-16T00:29:25.215Z,4.97
2019-03-16T00:31:57.113Z,5.00
2019-03-16T00:34:28.967Z,5.02
2019-03-16T00:37:04.614Z,5.01
2019-03-16T00:39:36.562Z,5.05
2019-03-16T00:42:08.336Z,5.02
2019-03-16T00:44:40.147Z,4.93
2019-03-16T00:47:12.019Z,4.99
2019-03-16T00:49:43.944Z,5.02
2019-03-16T00:52:15.890Z,4.99
2019-03-16T00:54:47.768Z,5.04
2019-03-16T00:57:19.947Z,4.93
2019-03-16T00:59:51.629Z,4.88
2019-03-16T01:02:27.383Z,4.86
2019-03-16T01:04:57.123Z,4.85
2019-03-16T01:07:28.761Z,4.92
2019-03-16T01:10:00.477Z,4.96
2019-03-16T01:12:34.864Z,4.94
2019-03-16T01:15:06.762Z,4.98
2019-03-16T01:17:38.606Z,4.97
2019-03-16T01:20:10.477Z,5.00
2019-03-16T01:22:44.505Z,5.00
2019-03-16T01:25:16.145Z,4.99
2019-03-16T01:27:45.470Z,5.03
2019-03-16T01:30:17.777Z,4.94
2019-03-16T01:32:49.653Z,4.96
2019-03-16T01:35:21.495Z,4.91
2019-03-16T01:37:53.285Z,4.81
2019-03-16T01:40:25.106Z,4.80
2019-03-16T01:42:56.903Z,4.81
2019-03-16T01:45:28.729Z,4.75
2019-03-16T01:48:00.485Z,4.75
2019-03-16T01:50:32.259Z,4.71
2019-03-16T01:53:04.043Z,4.75
2019-03-16T01:55:36.024Z,4.73
2019-03-16T01:58:07.876Z,4.74
2019-03-16T02:00:39.917Z,4.73
2019-03-16T02:03:11.768Z,4.75
2019-03-16T02:05:43.693Z,4.75
2019-03-16T02:08:16.761Z,4.75
2019-03-16T02:10:48.682Z,4.75
2019-03-16T02:13:20.567Z,4.81
2019-03-16T02:15:52.465Z,4.80
2019-03-16T02:18:24.321Z,4.84
2019-03-16T02:20:56.283Z,4.79
2019-03-16T02:23:30.201Z,4.79
2019-03-16T02:26:02.209Z,4.89
2019-03-16T02:28:34.027Z,4.84
2019-03-16T02:31:06.773Z,4.81
2019-03-16T02:33:38.815Z,4.87
2019-03-16T02:36:13.039Z,4.91
2019-03-16T02:38:44.917Z,4.92
2019-03-16T02:41:16.725Z,4.84
2019-03-16T02:43:49.059Z,4.68
2019-03-16T02:46:20.888Z,4.69
2019-03-16T02:48:56.032Z,4.70
2019-03-16T02:51:30.110Z,4.70
2019-03-16T02:54:03.987Z,4.76
2019-03-16T02:56:38.181Z,4.79
2019-03-16T02:59:12.799Z,4.76
2019-03-16T03:01:44.811Z,4.73
2019-03-16T03:04:16.730Z,4.72
2019-03-16T03:06:48.732Z,4.66
2019-03-16T03:09:21.422Z,4.63
2019-03-16T03:11:54.796Z,4.59
2019-03-16T03:14:26.687Z,4.56
2019-03-16T03:16:58.645Z,4.57
2019-03-16T03:19:30.497Z,4.52
2019-03-16T03:22:02.326Z,4.49
2019-03-16T03:24:34.137Z,4.51
2019-03-16T03:27:05.919Z,4.43
2019-03-16T03:29:37.590Z,4.41
2019-03-16T03:32:09.247Z,4.36
2019-03-16T03:34:41.134Z,4.37
2019-03-16T03:37:12.909Z,4.40
2019-03-16T03:39:44.578Z,4.32
2019-03-16T03:42:16.624Z,4.30
2019-03-16T03:44:48.361Z,4.33
2019-03-16T03:47:20.114Z,4.31
2019-03-16T03:49:51.739Z,4.29
2019-03-16T03:52:23.549Z,4.21
2019-03-16T03:54:55.541Z,4.13
2019-03-16T03:57:28.558Z,4.18
2019-03-16T04:00:00.634Z,4.17
2019-03-16T04:02:32.576Z,4.09
2019-03-16T04:05:06.715Z,4.13
2019-03-16T04:07:39.060Z,4.15
2019-03-16T04:10:11.618Z,4.09
2019-03-16T04:12:42.208Z,4.05
2019-03-16T04:15:14.501Z,4.04
2019-03-16T04:17:46.296Z,4.01
2019-03-16T04:20:18.232Z,4.02
2019-03-16T04:22:50.153Z,4.04
2019-03-16T04:25:21.848Z,4.06
2019-03-16T04:27:53.532Z,3.99
2019-03-16T04:30:25.283Z,4.03
2019-03-16T04:32:57.059Z,4.06
2019-03-16T04:35:28.897Z,4.09
2019-03-16T04:38:00.634Z,4.11
2019-03-16T04:40:32.507Z,4.10
2019-03-16T04:43:05.421Z,4.09
2019-03-16T04:45:38.016Z,4.08
2019-03-16T04:48:11.236Z,4.09
2019-03-16T04:50:43.169Z,4.03
2019-03-16T04:53:15.013Z,4.05
2019-03-16T04:55:46.847Z,4.08
2019-03-16T04:58:18.635Z,4.20
2019-03-16T05:00:50.454Z,4.24
2019-03-16T05:03:22.205Z,4.31
2019-03-16T05:05:53.973Z,4.35
2019-03-16T05:08:27.108Z,4.33
2019-03-16T05:10:58.942Z,4.43
2019-03-16T05:13:30.734Z,4.43
2019-03-16T05:16:02.526Z,4.50
2019-03-16T05:18:34.376Z,4.50
2019-03-16T05:21:06.171Z,4.55
2019-03-16T05:23:37.990Z,4.64
2019-03-16T05:26:11.306Z,4.68
2019-03-16T05:28:43.081Z,4.64
2019-03-16T05:31:14.780Z,4.57
2019-03-16T05:33:46.542Z,4.61
2019-03-16T05:36:18.846Z,4.68
2019-03-16T05:38:50.654Z,4.81
2019-03-16T05:41:22.399Z,4.96
2019-03-16T05:43:54.175Z,5.10
2019-03-16T05:46:25.901Z,5.17
2019-03-16T05:48:58.204Z,5.25
2019-03-16T05:51:30.007Z,5.43
2019-03-16T05:54:01.844Z,5.58
2019-03-16T05:56:33.580Z,5.71
2019-03-16T05:59:05.405Z,5.88
2019-03-16T06:01:38.794Z,6.06
2019-03-16T06:04:11.886Z,6.24
2019-03-16T06:06:46.906Z,6.35
2019-03-16T06:09:18.924Z,6.47
2019-03-16T06:11:51.276Z,6.54
2019-03-16T06:14:23.085Z,6.71
2019-03-16T06:16:55.414Z,6.79
2019-03-16T06:19:27.246Z,6.92
2019-03-16T06:21:59.138Z,6.96
2019-03-16T06:24:31.092Z,7.04
2019-03-16T06:27:03.099Z,7.19
2019-03-16T06:29:35.185Z,7.39
2019-03-16T06:32:07.288Z,7.56
2019-03-16T06:34:39.169Z,7.73
2019-03-16T06:37:12.025Z,7.88
2019-03-16T06:39:43.959Z,7.92
2019-03-16T06:42:16.239Z,7.97
2019-03-16T06:44:48.234Z,8.18
2019-03-16T06:47:27.971Z,8.35
2019-03-16T06:50:02.276Z,8.40
2019-03-16T06:52:34.307Z,8.29
2019-03-16T06:55:06.236Z,8.25
2019-03-16T06:57:37.943Z,8.33
2019-03-16T07:00:11.085Z,8.39
2019-03-16T07:02:43.314Z,8.44
2019-03-16T07:05:19.819Z,8.33
2019-03-16T07:07:50.309Z,8.34
2019-03-16T07:10:22.335Z,8.32
2019-03-16T07:12:54.356Z,8.35
2019-03-16T07:15:26.188Z,8.51
2019-03-16T07:17:58.032Z,8.68
2019-03-16T07:20:30.424Z,8.80
2019-03-16T07:23:02.763Z,8.73
2019-03-16T07:25:34.540Z,8.79
2019-03-16T07:28:06.599Z,8.79
2019-03-16T07:30:38.246Z,9.02
2019-03-16T07:33:12.535Z,9.30
2019-03-16T07:35:44.263Z,9.54
2019-03-16T07:38:18.679Z,9.76
2019-03-16T07:40:50.763Z,9.89
2019-03-16T07:43:28.005Z,10.00
2019-03-16T07:45:59.976Z,10.20
2019-03-16T07:48:31.871Z,10.38
2019-03-16T07:51:04.218Z,10.41
2019-03-16T07:53:36.376Z,10.45
2019-03-16T07:56:11.289Z,10.66
2019-03-16T07:58:43.230Z,10.72
2019-03-16T08:01:15.021Z,10.79
2019-03-16T08:03:47.359Z,11.03
2019-03-16T08:06:19.449Z,11.03
2019-03-16T08:08:51.416Z,11.16
2019-03-16T08:11:23.154Z,11.28
2019-03-16T08:13:54.989Z,11.28
2019-03-16T08:16:27.486Z,11.41
2019-03-16T08:18:59.412Z,11.61
2019-03-16T08:21:52.990Z,11.72
2019-03-16T08:24:26.124Z,11.75
2019-03-16T08:26:59.549Z,11.75
2019-03-16T08:29:31.505Z,11.70
2019-03-16T08:32:03.442Z,11.98
2019-03-16T08:34:38.147Z,12.09
2019-03-16T08:37:10.080Z,12.09
2019-03-16T08:42:33.925Z,12.34
2019-03-16T08:45:06.365Z,12.45
2019-03-16T08:47:38.266Z,12.66
2019-03-16T08:50:18.365Z,12.88
2019-03-16T08:52:50.292Z,12.93
2019-03-16T08:55:22.161Z,13.16
2019-03-16T08:58:05.626Z,13.33
2019-03-16T09:00:34.413Z,13.35
2019-03-16T09:03:07.691Z,13.52
2019-03-16T09:05:40.127Z,13.54
2019-03-16T09:08:13.277Z,13.54
2019-03-16T09:10:45.136Z,13.65
2019-03-16T09:13:22.488Z,13.77
2019-03-16T09:15:55.594Z,14.08
2019-03-16T09:18:27.670Z,14.19
2019-03-16T09:20:59.685Z,14.21
2019-03-16T09:23:32.013Z,14.30
2019-03-16T09:26:04.097Z,14.41
2019-03-16T09:28:36.213Z,14.42
2019-03-16T09:31:08.100Z,14.56
2019-03-16T09:33:42.039Z,14.58
2019-03-16T09:36:15.598Z,14.70
2019-03-16T09:38:47.552Z,14.63
2019-03-16T09:41:24.440Z,14.70
2019-03-16T09:43:56.900Z,14.80
2019-03-16T09:46:28.980Z,14.73
2019-03-16T09:49:01.119Z,14.78
2019-03-16T09:51:33.329Z,14.93
2019-03-16T09:54:05.211Z,15.10
2019-03-16T09:56:37.044Z,15.00
2019-03-16T09:59:10.639Z,15.04
2019-03-16T10:01:56.567Z,15.11
2019-03-16T10:04:30.394Z,15.11
2019-03-16T10:07:02.299Z,14.94
2019-03-16T10:09:34.264Z,14.95
2019-03-16T10:12:06.252Z,14.81
2019-03-16T10:14:42.750Z,14.87
2019-03-16T10:17:16.231Z,14.80
2019-03-16T10:19:48.000Z,14.62
2019-03-16T10:22:20.540Z,14.56
2019-03-16T10:24:55.418Z,14.61
2019-03-16T10:27:27.305Z,14.59
2019-03-16T10:30:02.935Z,14.63
2019-03-16T10:32:42.969Z,14.71
2019-03-16T10:35:15.462Z,14.64
2019-03-16T10:37:52.121Z,14.67
2019-03-16T10:40:25.401Z,14.71
2019-03-16T10:42:57.501Z,14.72
2019-03-16T10:48:09.598Z,14.91
2019-03-16T10:50:42.810Z,15.08
2019-03-16T10:53:18.182Z,15.05
2019-03-16T10:55:51.105Z,15.13
2019-03-16T10:58:22.995Z,15.09
2019-03-16T11:00:54.956Z,15.09
2019-03-16T11:03:27.058Z,15.05
2019-03-16T11:06:01.515Z,14.94
2019-03-16T11:08:36.118Z,14.98
2019-03-16T11:11:08.302Z,15.00
2019-03-16T11:13:40.247Z,15.18
2019-03-16T11:16:13.607Z,15.14
2019-03-16T11:18:45.606Z,15.04
2019-03-16T11:21:18.972Z,14.73
2019-03-16T11:23:51.408Z,14.67
2019-03-16T11:26:28.671Z,14.74
2019-03-16T11:29:09.058Z,14.68
2019-03-16T11:31:34.832Z,14.61
2019-03-16T11:34:06.810Z,14.56
2019-03-16T11:36:40.346Z,14.48
2019-03-16T11:39:12.473Z,14.39
2019-03-16T11:41:45.471Z,14.34
2019-03-16T11:44:17.622Z,14.26
2019-03-16T11:46:49.996Z,14.32
2019-03-16T11:49:23.640Z,14.21
2019-03-16T11:51:55.565Z,14.06
2019-03-16T11:54:27.536Z,14.12
2019-03-16T11:56:59.988Z,14.01
2019-03-16T11:59:34.472Z,14.01
2019-03-16T12:02:06.490Z,13.88
2019-03-16T12:04:38.543Z,13.86
2019-03-16T12:07:10.986Z,13.78
2019-03-16T12:09:42.915Z,13.75
2019-03-16T12:12:15.080Z,13.79
2019-03-16T12:14:47.734Z,13.79
2019-03-16T12:17:19.738Z,13.87
2019-03-16T12:19:54.314Z,13.80
2019-03-16T12:22:28.091Z,13.79
2019-03-16T12:25:01.415Z,13.75
2019-03-16T12:27:36.365Z,13.71
2019-03-16T12:30:08.491Z,13.75
2019-03-16T12:32:42.613Z,13.68
2019-03-16T12:35:16.310Z,13.62
2019-03-16T12:37:48.422Z,13.58
2019-03-16T12:40:22.486Z,13.58
2019-03-16T12:42:55.985Z,13.65
2019-03-16T12:45:28.452Z,13.51
2019-03-16T12:48:00.329Z,13.49
2019-03-16T12:50:32.316Z,13.51
2019-03-16T12:53:04.198Z,13.49
2019-03-16T12:55:36.203Z,13.44
2019-03-16T12:58:12.966Z,13.42
2019-03-16T13:00:44.882Z,13.49
2019-03-16T13:03:19.444Z,13.46
2019-03-16T13:05:51.223Z,13.41
2019-03-16T13:08:23.013Z,13.36
2019-03-16T13:10:54.778Z,13.30
2019-03-16T13:13:26.747Z,13.14
2019-03-16T13:15:58.533Z,13.07
2019-03-16T13:18:30.508Z,13.05
2019-03-16T13:21:02.289Z,12.94
2019-03-16T13:23:34.033Z,12.93
2019-03-16T13:26:05.852Z,12.92
2019-03-16T13:28:40.705Z,12.94
2019-03-16T13:31:12.620Z,12.93
2019-03-16T13:33:44.652Z,12.86
2019-03-16T13:36:16.302Z,12.84
2019-03-16T13:38:48.109Z,12.88
2019-03-16T13:41:21.580Z,12.81
2019-03-16T13:43:53.255Z,12.71
2019-03-16T13:46:24.835Z,12.68
2019-03-16T13:48:56.741Z,12.62
2019-03-16T13:51:28.512Z,12.69
2019-03-16T13:54:00.414Z,12.68
2019-03-16T13:56:32.209Z,12.64
2019-03-16T13:59:03.968Z,12.63
2019-03-16T14:01:36.021Z,12.46
2019-03-16T14:04:10.921Z,12.41
2019-03-16T14:06:43.892Z,12.52
2019-03-16T14:09:16.071Z,12.50
2019-03-16T14:11:47.997Z,12.55
2019-03-16T14:14:19.775Z,12.50
2019-03-16T14:16:51.695Z,12.55
2019-03-16T14:19:23.695Z,12.65
2019-03-16T14:21:57.679Z,12.67
2019-03-16T14:24:33.052Z,12.66
2019-03-16T14:27:08.156Z,12.63
2019-03-16T14:29:38.933Z,12.67
2019-03-16T14:32:11.818Z,12.62
2019-03-16T14:34:44.412Z,12.60
2019-03-16T14:37:16.245Z,12.66
2019-03-16T14:39:48.090Z,12.60
2019-03-16T14:42:22.522Z,12.56
2019-03-16T14:44:54.551Z,12.60
2019-03-16T14:47:26.866Z,12.55
2019-03-16T14:50:01.900Z,12.59
2019-03-16T14:52:34.356Z,12.46
2019-03-16T14:55:07.871Z,12.46
2019-03-16T14:57:41.312Z,12.46
2019-03-16T15:00:14.465Z,12.54
2019-03-16T15:02:46.955Z,12.58
2019-03-16T15:05:19.342Z,12.51
2019-03-16T15:07:51.116Z,12.60
2019-03-16T15:10:23.004Z,12.60
2019-03-16T15:12:54.722Z,12.64
2019-03-16T15:15:28.907Z,12.56
2019-03-16T15:18:00.928Z,12.51
2019-03-16T15:20:32.894Z,12.57
2019-03-16T15:23:04.857Z,12.66
2019-03-16T15:25:39.677Z,12.77
2019-03-16T15:30:50.139Z,12.89
2019-03-16T15:33:14.729Z,13.09
2019-03-16T15:35:46.742Z,13.13
2019-03-16T15:38:20.563Z,13.22
2019-03-16T15:40:52.425Z,13.23
2019-03-16T15:43:24.364Z,13.26
2019-03-16T15:45:57.063Z,13.30
2019-03-16T15:48:29.410Z,13.32
2019-03-16T15:51:01.229Z,13.31
2019-03-16T15:53:33.107Z,13.36
2019-03-16T15:56:05.145Z,13.30
2019-03-16T15:58:38.618Z,13.34
2019-03-16T16:01:09.494Z,13.36
2019-03-16T16:03:43.411Z,13.36
2019-03-16T16:06:15.438Z,13.34
2019-03-16T16:08:47.282Z,13.33
2019-03-16T16:11:19.177Z,13.37
2019-03-16T16:13:54.476Z,13.37
2019-03-16T16:16:26.648Z,13.38
2019-03-16T16:18:58.594Z,13.39
2019-03-16T16:21:31.428Z,13.40
2019-03-16T16:24:04.237Z,13.40
2019-03-16T16:26:36.133Z,13.41
2019-03-16T16:29:07.918Z,13.37
2019-03-16T16:31:40.503Z,13.39
2019-03-16T16:34:12.427Z,13.39
2019-03-16T16:36:45.785Z,13.36
2019-03-16T16:39:19.604Z,13.36
2019-03-16T16:41:51.635Z,13.34
2019-03-16T16:44:23.638Z,13.38
2019-03-16T16:46:56.095Z,13.41
2019-03-16T16:49:28.035Z,13.42
2019-03-16T16:51:59.909Z,13.44
2019-03-16T16:54:31.876Z,13.46
2019-03-16T16:57:06.077Z,13.50
2019-03-16T16:59:38.539Z,13.51
2019-03-16T17:02:10.405Z,13.53
2019-03-16T17:04:42.443Z,13.47
2019-03-16T17:07:14.245Z,13.53
2019-03-16T17:09:46.129Z,13.55
2019-03-16T17:12:20.581Z,13.51
2019-03-16T17:14:52.297Z,13.46
2019-03-16T17:17:35.035Z,13.50
2019-03-16T17:19:59.570Z,13.47
2019-03-16T17:22:31.575Z,13.48
2019-03-16T17:25:05.623Z,13.49
2019-03-16T17:27:40.588Z,13.53
2019-03-16T17:30:14.870Z,13.59
2019-03-16T17:32:48.002Z,13.65
2019-03-16T17:35:26.713Z,13.63
2019-03-16T17:37:58.651Z,13.64
2019-03-16T17:40:30.553Z,13.69
2019-03-16T17:43:02.486Z,13.68
2019-03-16T17:45:36.912Z,13.67
2019-03-16T17:48:08.917Z,13.62
2019-03-16T17:50:43.193Z,13.57
2019-03-16T17:53:16.676Z,13.58
2019-03-16T17:55:48.764Z,13.54
2019-03-16T17:58:20.729Z,13.55
2019-03-16T18:00:53.129Z,13.56
2019-03-16T18:03:25.028Z,13.55
2019-03-16T18:05:56.864Z,13.49
2019-03-16T18:08:29.442Z,13.52
2019-03-16T18:11:01.425Z,13.53
2019-03-16T18:13:33.545Z,13.47
2019-03-16T18:16:05.695Z,13.47
2019-03-16T18:18:37.619Z,13.44
2019-03-16T18:21:09.555Z,13.45
2019-03-16T18:23:44.650Z,13.47
2019-03-16T18:26:17.896Z,13.47
2019-03-16T18:28:49.950Z,13.47
2019-03-16T18:31:21.956Z,13.42
2019-03-16T18:33:53.749Z,13.41
2019-03-16T18:36:26.150Z,13.40
2019-03-16T18:39:00.426Z,13.28
2019-03-16T18:41:34.057Z,13.27
2019-03-16T18:44:10.701Z,13.30
2019-03-16T18:46:42.970Z,13.17
2019-03-16T18:49:16.563Z,12.77
2019-03-16T18:51:51.525Z,12.29
2019-03-16T18:54:26.612Z,12.29
2019-03-16T18:56:58.478Z,12.13
2019-03-16T18:59:30.847Z,12.00
2019-03-16T19:02:02.642Z,11.52
2019-03-16T19:04:37.592Z,11.52
2019-03-16T19:07:09.333Z,11.41
2019-03-16T19:09:41.274Z,11.22
2019-03-16T19:12:13.229Z,11.03
2019-03-16T19:14:45.174Z,11.03
2019-03-16T19:17:17.196Z,10.94
2019-03-16T19:19:48.843Z,10.94
2019-03-16T19:22:20.622Z,10.90
2019-03-16T19:24:52.368Z,10.90
2019-03-16T19:27:24.157Z,10.84
2019-03-16T19:29:55.012Z,10.91
2019-03-16T19:32:33.662Z,10.79
2019-03-16T19:35:01.621Z,10.88
2019-03-16T19:37:35.516Z,10.73
2019-03-16T19:40:08.856Z,10.73
2019-03-16T19:42:40.657Z,10.67
2019-03-16T19:45:12.899Z,10.40
2019-03-16T19:47:47.062Z,10.40
2019-03-16T19:50:20.789Z,10.31
2019-03-16T19:52:54.868Z,10.18
2019-03-16T19:55:30.097Z,10.18
2019-03-16T19:58:04.752Z,10.18
2019-03-16T20:00:36.502Z,10.07
2019-03-16T20:03:08.431Z,9.99
2019-03-16T20:05:40.180Z,9.90
2019-03-16T20:08:12.036Z,9.82
2019-03-16T20:10:43.762Z,9.77
2019-03-16T20:13:15.548Z,9.76
2019-03-16T20:15:47.267Z,9.68
2019-03-16T20:18:19.083Z,9.65
2019-03-16T20:20:50.847Z,9.64
2019-03-16T20:23:22.744Z,9.64
2019-03-16T20:25:54.602Z,9.61
2019-03-16T20:28:26.461Z,9.55
2019-03-16T20:31:00.461Z,9.69
2019-03-16T20:33:32.355Z,9.71
2019-03-16T20:36:04.211Z,9.65
2019-03-16T20:38:36.625Z,9.59
2019-03-16T20:41:08.489Z,9.59
2019-03-16T20:43:40.469Z,9.58
2019-03-16T20:46:12.305Z,9.59
2019-03-16T20:48:44.149Z,9.55
2019-03-16T20:51:16.033Z,9.35
2019-03-16T20:53:49.009Z,9.33
2019-03-16T20:56:20.970Z,9.27
2019-03-16T20:58:52.947Z,9.36
2019-03-16T21:01:27.121Z,9.37
2019-03-16T21:03:59.384Z,9.41
2019-03-16T21:06:31.165Z,9.25
2019-03-16T21:11:32.659Z,9.24
2019-03-16T21:14:04.733Z,9.22
2019-03-16T21:16:36.562Z,9.21
2019-03-16T21:19:10.916Z,9.22
2019-03-16T21:21:41.706Z,9.16
2019-03-16T21:24:13.560Z,9.20
2019-03-16T21:26:52.287Z,9.01
2019-03-16T21:29:18.927Z,9.08
2019-03-16T21:31:50.834Z,9.02
2019-03-16T21:34:22.825Z,8.86
2019-03-16T21:36:54.714Z,8.71
2019-03-16T21:39:26.534Z,8.62
2019-03-16T21:42:01.132Z,8.50
2019-03-16T21:44:32.950Z,8.39
2019-03-16T21:47:06.544Z,8.44
2019-03-16T21:49:38.240Z,8.46
2019-03-16T21:52:12.551Z,8.27
2019-03-16T21:54:44.353Z,8.43
2019-03-16T21:57:16.171Z,8.47
2019-03-16T21:59:48.216Z,8.55
2019-03-16T22:02:20.241Z,8.50
2019-03-16T22:04:52.072Z,8.40
2019-03-16T22:07:25.076Z,8.30
2019-03-16T22:09:56.919Z,8.22
2019-03-16T22:12:28.969Z,8.12
2019-03-16T22:15:00.784Z,8.10
2019-03-16T22:17:36.721Z,8.01
2019-03-16T22:20:09.835Z,7.73
2019-03-16T22:22:42.841Z,7.75
2019-03-16T22:25:15.615Z,7.63
2019-03-16T22:27:48.021Z,7.44
2019-03-16T22:30:19.894Z,7.38
2019-03-16T22:32:52.545Z,7.35
2019-03-16T22:35:24.268Z,7.41
2019-03-16T22:37:56.028Z,7.46
2019-03-16T22:40:29.430Z,7.54
2019-03-16T22:43:01.308Z,7.44
2019-03-16T22:45:33.784Z,7.39
2019-03-16T22:48:05.620Z,7.20
2019-03-16T22:50:37.372Z,7.08
2019-03-16T22:53:09.190Z,7.07
2019-03-16T22:55:40.901Z,7.09
2019-03-16T22:58:12.657Z,7.18
2019-03-16T23:00:48.475Z,7.41
2019-03-16T23:03:20.319Z,7.41
2019-03-16T23:05:52.174Z,7.24
2019-03-16T23:08:24.164Z,7.33
2019-03-16T23:10:55.864Z,7.53
2019-03-16T23:13:27.577Z,7.65
2019-03-16T23:15:59.582Z,7.76
2019-03-16T23:18:31.437Z,7.82
2019-03-16T23:21:03.231Z,7.91
2019-03-16T23:23:34.966Z,7.97
2019-03-16T23:26:06.729Z,8.00
2019-03-16T23:28:38.491Z,8.00
2019-03-16T23:31:12.385Z,8.09
2019-03-16T23:33:43.954Z,8.12
2019-03-16T23:36:15.863Z,8.11
2019-03-16T23:38:49.130Z,8.09
2019-03-16T23:41:21.817Z,8.03
2019-03-16T23:43:53.720Z,8.05
2019-03-16T23:46:25.514Z,8.07
2019-03-16T23:48:57.354Z,8.07
2019-03-16T23:51:29.287Z,8.09
2019-03-16T23:54:01.155Z,8.11
2019-03-16T23:56:32.886Z,8.13
2019-03-16T23:59:04.718Z,8.05
